Time;durP1;ratioP1;P1;durP2;ratioP2;P2;SDS_P1;SDS_P2;PMS_P1;PMS_P2;Temp;Humidity;BMP_temperature;BMP_pressure;BME280_temperature;BME280_humidity;BME280_pressure;Samples;Min_cycle;Max_cycle;Signal;HPM_P1;HPM_P2
2021/01/17 00:01:03;;;;;;;5.10;2.15;;;0.70;99.90;;;;;;4939138;28;20467;-84
2021/01/17 00:03:31;;;;;;;3.03;2.05;;;0.90;99.90;;;;;;4940353;28;20179;-82
2021/01/17 00:05:58;;;;;;;4.50;2.50;;;1.00;99.90;;;;;;4949625;28;20785;-82
2021/01/17 00:08:24;;;;;;;3.97;2.75;;;1.10;99.90;;;;;;4963762;28;20207;-81
2021/01/17 00:10:51;;;;;;;3.03;2.60;;;1.20;99.90;;;;;;4960774;28;20333;-82
2021/01/17 00:13:18;;;;;;;5.32;3.15;;;1.20;99.90;;;;;;4978310;28;20179;-82
2021/01/17 00:15:44;;;;;;;5.97;3.63;;;1.20;99.90;;;;;;4960106;28;20193;-82
2021/01/17 00:18:10;;;;;;;5.17;2.93;;;1.20;99.90;;;;;;4946663;28;20183;-81
2021/01/17 00:20:37;;;;;;;6.97;3.40;;;1.30;99.90;;;;;;4945333;28;20179;-80
2021/01/17 00:23:06;;;;;;;9.35;4.30;;;1.30;99.90;;;;;;4951662;28;20434;-81
2021/01/17 00:25:35;;;;;;;7.32;3.90;;;1.40;99.90;;;;;;4966360;28;20195;-82
2021/01/17 00:28:05;;;;;;;5.65;4.20;;;1.40;99.90;;;;;;4964850;28;20207;-81
2021/01/17 00:30:46;;;;;;;6.63;3.20;;;1.50;99.90;;;;;;4979604;28;20171;-81
2021/01/17 00:33:13;;;;;;;5.00;3.38;;;1.50;99.90;;;;;;4951070;28;20642;-81
2021/01/17 00:35:39;;;;;;;8.20;3.65;;;1.50;99.90;;;;;;4949763;28;20195;-81
2021/01/17 00:38:05;;;;;;;13.53;4.20;;;1.50;99.90;;;;;;4985196;28;20183;-81
2021/01/17 00:40:33;;;;;;;11.40;3.60;;;1.40;99.90;;;;;;4983162;28;20201;-81
2021/01/17 00:43:04;;;;;;;4.97;3.70;;;1.40;99.90;;;;;;4984194;28;20179;-81
2021/01/17 00:45:33;;;;;;;6.13;3.05;;;1.40;99.90;;;;;;4970416;28;20218;-82
2021/01/17 00:47:58;;;;;;;6.10;3.80;;;1.50;99.90;;;;;;4968721;28;20679;-82
2021/01/17 00:50:25;;;;;;;9.50;3.90;;;1.50;99.90;;;;;;4966476;28;20182;-81
2021/01/17 00:52:55;;;;;;;14.85;4.63;;;1.60;99.90;;;;;;4988011;28;20203;-82
2021/01/17 00:55:23;;;;;;;6.35;4.13;;;1.60;99.90;;;;;;4968965;28;20743;-82
2021/01/17 00:57:50;;;;;;;5.68;3.78;;;1.60;99.90;;;;;;4954468;28;20180;-82
2021/01/17 01:00:20;;;;;;;9.73;4.78;;;1.50;99.90;;;;;;4968351;28;20171;-81
2021/01/17 01:02:46;;;;;;;7.28;5.13;;;1.50;99.90;;;;;;4951479;28;20211;-79
2021/01/17 01:05:14;;;;;;;6.70;5.00;;;1.60;99.90;;;;;;4986181;28;20242;-83
2021/01/17 01:07:42;;;;;;;7.53;4.35;;;1.60;99.90;;;;;;4988136;28;20239;-82
2021/01/17 01:10:09;;;;;;;7.55;4.47;;;1.60;99.90;;;;;;4970678;28;20199;-81
2021/01/17 01:12:35;;;;;;;8.85;4.65;;;1.60;99.90;;;;;;4957763;28;20179;-83
2021/01/17 01:15:02;;;;;;;7.72;4.45;;;1.40;99.90;;;;;;4990630;28;20187;-81
2021/01/17 01:17:31;;;;;;;9.52;5.00;;;1.40;99.90;;;;;;4972676;28;20190;-81
2021/01/17 01:19:58;;;;;;;9.13;3.78;;;1.50;99.90;;;;;;4956139;28;20187;-81
2021/01/17 01:22:24;;;;;;;7.60;4.93;;;1.50;99.90;;;;;;4934222;28;20184;-80
2021/01/17 01:24:50;;;;;;;3.55;2.78;;;1.50;99.90;;;;;;4955200;28;20229;-81
2021/01/17 01:27:24;;;;;;;8.00;4.03;;;1.50;99.90;;;;;;4987725;28;20203;-82
2021/01/17 01:29:50;;;;;;;6.20;3.90;;;1.60;99.90;;;;;;4969406;28;20179;-81
2021/01/17 01:32:18;;;;;;;10.37;4.13;;;1.60;99.90;;;;;;4988061;28;20539;-81
2021/01/17 01:34:44;;;;;;;6.53;4.30;;;1.60;99.90;;;;;;4987733;28;20198;-80
2021/01/17 01:37:11;;;;;;;11.07;4.10;;;1.70;99.90;;;;;;4953511;28;20175;-80
2021/01/17 01:39:38;;;;;;;7.05;3.97;;;1.60;99.90;;;;;;4957626;28;20911;-82
2021/01/17 01:42:07;;;;;;;4.60;2.88;;;1.60;99.90;;;;;;4940322;28;20222;-79
2021/01/17 01:44:33;;;;;;;10.93;4.72;;;1.60;99.90;;;;;;4989631;28;20182;-81
2021/01/17 01:47:03;;;;;;;6.82;4.43;;;1.60;99.90;;;;;;4971779;28;20171;-82
2021/01/17 01:49:32;;;;;;;6.20;3.38;;;1.60;99.90;;;;;;4940602;28;20614;-82
2021/01/17 01:52:01;;;;;;;8.50;4.45;;;1.60;99.90;;;;;;4972342;28;20183;-80
2021/01/17 01:54:31;;;;;;;9.57;3.70;;;1.60;99.90;;;;;;4988562;28;20200;-81
2021/01/17 01:57:06;;;;;;;9.95;4.97;;;1.60;99.90;;;;;;4957110;28;20247;-80
2021/01/17 01:59:33;;;;;;;6.80;3.85;;;1.60;99.90;;;;;;4957429;28;20215;-82
2021/01/17 02:02:13;;;;;;;6.65;3.85;;;1.60;99.90;;;;;;4972458;28;20176;-81
2021/01/17 02:04:48;;;;;;;6.07;3.47;;;1.50;99.90;;;;;;4972507;28;20226;-82
2021/01/17 02:07:13;;;;;;;8.80;3.78;;;1.40;99.90;;;;;;4972864;28;20206;-81
2021/01/17 02:09:40;;;;;;;4.03;3.57;;;1.40;99.90;;;;;;4991257;28;20206;-81
2021/01/17 02:12:33;;;;;;;6.25;3.25;;;1.40;99.90;;;;;;4969545;28;20172;-81
2021/01/17 02:15:31;;;;;;;8.48;3.38;;;1.40;99.90;;;;;;4969638;28;20650;-81
2021/01/17 02:18:13;;;;;;;9.65;5.20;;;1.20;99.90;;;;;;4988132;28;20180;-82
2021/01/17 02:20:43;;;;;;;6.05;4.20;;;1.20;99.90;;;;;;4941374;28;20184;-81
2021/01/17 02:23:18;;;;;;;6.63;4.60;;;1.30;99.90;;;;;;4972122;28;20195;-81
2021/01/17 02:25:47;;;;;;;7.78;5.07;;;1.10;99.90;;;;;;4971000;28;20191;-82
2021/01/17 02:28:19;;;;;;;5.05;3.70;;;1.00;99.90;;;;;;4971517;28;20644;-82
2021/01/17 02:30:57;;;;;;;5.93;3.78;;;1.10;99.90;;;;;;4986564;28;20247;-81
2021/01/17 02:33:25;;;;;;;5.30;3.50;;;1.20;99.90;;;;;;4968481;28;20171;-81
2021/01/17 02:36:02;;;;;;;5.50;4.22;;;1.30;99.90;;;;;;4987359;28;20270;-82
2021/01/17 02:38:56;;;;;;;8.02;3.75;;;1.40;99.90;;;;;;4970256;28;20190;-82
2021/01/17 02:41:58;;;;;;;4.90;3.00;;;1.40;99.90;;;;;;4971250;28;20178;-82
2021/01/17 02:44:33;;;;;;;9.18;4.20;;;1.40;99.90;;;;;;4971526;28;20214;-82
2021/01/17 02:47:01;;;;;;;3.65;3.03;;;0.90;99.90;;;;;;4956245;28;20183;-82
2021/01/17 02:49:31;;;;;;;6.00;3.45;;;1.10;99.90;;;;;;4955635;28;20183;-82
2021/01/17 02:52:07;;;;;;;8.18;3.88;;;1.20;99.90;;;;;;4969738;28;20167;-82
2021/01/17 02:54:42;;;;;;;4.20;2.65;;;1.40;99.90;;;;;;4987761;28;20246;-82
2021/01/17 02:57:10;;;;;;;6.15;3.80;;;1.40;99.90;;;;;;4970661;28;20167;-80
2021/01/17 03:00:04;;;;;;;5.47;3.67;;;1.40;99.90;;;;;;4971079;28;20188;-81
2021/01/17 03:02:33;;;;;;;6.63;3.00;;;1.40;99.90;;;;;;4969921;28;20175;-81
2021/01/17 03:05:01;;;;;;;9.90;4.15;;;1.00;99.90;;;;;;4982332;28;20250;-82
2021/01/17 03:07:30;;;;;;;9.80;4.65;;;0.90;99.90;;;;;;4947972;28;20239;-81
2021/01/17 03:09:56;;;;;;;4.88;3.45;;;1.00;99.90;;;;;;4981025;28;20274;-81
2021/01/17 03:12:22;;;;;;;6.72;4.00;;;1.00;99.90;;;;;;4949088;28;20171;-81
2021/01/17 03:14:49;;;;;;;5.78;4.25;;;1.20;99.90;;;;;;4984889;28;20194;-81
2021/01/17 03:17:15;;;;;;;7.65;4.07;;;1.30;99.90;;;;;;4964177;28;20185;-81
2021/01/17 03:19:41;;;;;;;8.27;5.20;;;1.30;99.90;;;;;;4964296;28;20179;-82
2021/01/17 03:22:07;;;;;;;5.93;3.90;;;1.20;99.90;;;;;;4963528;28;20422;-82
2021/01/17 03:24:33;;;;;;;11.10;4.10;;;1.10;99.90;;;;;;4964352;28;20587;-82
2021/01/17 03:27:01;;;;;;;6.40;3.73;;;0.90;99.90;;;;;;4981471;28;20175;-82
2021/01/17 03:29:26;;;;;;;9.13;4.35;;;1.10;99.90;;;;;;4963736;28;20179;-81
2021/01/17 03:31:52;;;;;;;9.07;4.40;;;0.90;99.90;;;;;;4963283;28;20248;-81
2021/01/17 03:34:20;;;;;;;8.30;4.30;;;1.10;99.90;;;;;;4962938;28;20182;-82
2021/01/17 03:36:46;;;;;;;7.90;4.05;;;1.30;99.90;;;;;;4964767;28;20179;-82
2021/01/17 03:39:12;;;;;;;6.00;3.97;;;1.20;99.90;;;;;;4958170;28;20183;-81
2021/01/17 03:41:37;;;;;;;5.27;3.90;;;1.10;99.90;;;;;;4945481;28;20171;-81
2021/01/17 03:44:03;;;;;;;8.93;4.43;;;1.00;99.90;;;;;;4953157;28;20270;-82
2021/01/17 03:46:30;;;;;;;9.13;5.38;;;0.90;99.90;;;;;;4961622;28;20481;-82
2021/01/17 03:48:56;;;;;;;3.92;3.25;;;1.10;99.90;;;;;;4962518;28;20390;-82
2021/01/17 03:51:22;;;;;;;5.07;2.93;;;1.20;99.90;;;;;;4980060;28;20519;-83
2021/01/17 03:53:48;;;;;;;5.45;3.63;;;1.40;99.90;;;;;;4963008;28;20535;-83
2021/01/17 03:56:14;;;;;;;4.90;3.30;;;1.40;99.90;;;;;;4947782;28;20199;-82
2021/01/17 03:58:43;;;;;;;3.38;2.45;;;1.40;99.90;;;;;;4963923;28;20227;-82
2021/01/17 04:01:09;;;;;;;6.50;4.15;;;1.30;99.90;;;;;;4932935;28;20187;-82
2021/01/17 04:03:34;;;;;;;10.83;3.50;;;1.20;99.90;;;;;;4948309;28;20247;-83
2021/01/17 04:06:00;;;;;;;5.47;2.93;;;1.20;99.90;;;;;;4965231;28;20273;-83
2021/01/17 04:08:26;;;;;;;8.33;3.30;;;1.20;99.90;;;;;;4951591;28;20199;-83
2021/01/17 04:10:51;;;;;;;7.50;4.10;;;0.70;99.90;;;;;;4934970;28;20418;-82
2021/01/17 04:13:17;;;;;;;6.97;3.83;;;0.40;99.90;;;;;;4966964;28;20647;-82
2021/01/17 04:15:43;;;;;;;5.80;3.60;;;0.70;99.90;;;;;;4950931;28;20203;-82
2021/01/17 04:18:09;;;;;;;5.87;2.60;;;0.60;99.90;;;;;;4972279;28;20418;-81
2021/01/17 04:20:35;;;;;;;6.63;3.97;;;0.80;99.90;;;;;;4982752;28;20199;-82
2021/01/17 04:23:04;;;;;;;4.70;3.45;;;0.80;99.90;;;;;;4983145;28;20179;-83
2021/01/17 04:25:30;;;;;;;6.72;5.32;;;1.00;99.90;;;;;;4986218;28;20199;-83
2021/01/17 04:27:57;;;;;;;4.97;3.80;;;1.30;99.90;;;;;;4970000;28;20330;-80
2021/01/17 04:30:26;;;;;;;8.15;5.00;;;1.10;99.90;;;;;;4970465;28;20202;-82
2021/01/17 04:32:53;;;;;;;6.15;4.30;;;1.20;99.90;;;;;;4972477;28;20168;-82
2021/01/17 04:35:19;;;;;;;6.20;4.32;;;1.30;99.90;;;;;;4970435;28;20250;-81
2021/01/17 04:37:44;;;;;;;4.30;3.50;;;1.10;99.90;;;;;;4971045;28;20183;-81
2021/01/17 04:40:11;;;;;;;5.67;3.40;;;0.90;99.90;;;;;;4971196;28;20175;-82
2021/01/17 04:42:40;;;;;;;10.32;5.03;;;0.60;99.90;;;;;;4955303;28;20191;-81
2021/01/17 04:45:08;;;;;;;5.90;3.75;;;0.70;99.90;;;;;;4956399;28;20297;-82
2021/01/17 04:47:36;;;;;;;6.65;3.85;;;1.00;99.90;;;;;;4971192;28;20274;-82
2021/01/17 04:50:05;;;;;;;7.85;4.63;;;1.20;99.90;;;;;;4971194;28;20172;-81
2021/01/17 04:52:42;;;;;;;6.32;3.75;;;1.30;99.90;;;;;;4955399;28;20187;-81
2021/01/17 04:55:12;;;;;;;6.15;3.65;;;0.80;99.90;;;;;;4972688;28;20772;-81
2021/01/17 04:58:04;;;;;;;6.90;4.38;;;0.60;99.90;;;;;;4971603;28;20175;-81
2021/01/17 05:00:32;;;;;;;6.95;4.00;;;0.70;99.90;;;;;;4954337;28;20609;-81
2021/01/17 05:03:14;;;;;;;8.15;4.80;;;0.40;99.90;;;;;;4987401;28;20183;-81
2021/01/17 05:05:50;;;;;;;3.97;3.13;;;0.40;99.90;;;;;;4988196;28;20202;-81
2021/01/17 05:08:25;;;;;;;11.07;4.75;;;0.60;99.90;;;;;;4971500;28;20250;-82
2021/01/17 05:11:05;;;;;;;4.65;3.47;;;0.60;99.90;;;;;;4969463;28;20171;-82
2021/01/17 05:13:36;;;;;;;10.63;4.85;;;0.40;99.90;;;;;;4969387;28;20168;-82
2021/01/17 05:16:07;;;;;;;10.38;4.32;;;0.70;99.90;;;;;;4970274;28;20188;-82
2021/01/17 05:18:35;;;;;;;7.28;3.95;;;0.90;99.90;;;;;;4987325;28;20171;-82
2021/01/17 05:21:02;;;;;;;6.90;3.80;;;1.00;99.90;;;;;;4955262;28;20194;-82
2021/01/17 05:23:35;;;;;;;7.95;3.72;;;1.10;99.90;;;;;;4954810;28;20250;-82
2021/01/17 05:26:04;;;;;;;4.88;3.75;;;0.80;99.90;;;;;;4982774;28;20246;-81
2021/01/17 05:28:31;;;;;;;6.60;3.15;;;0.90;99.90;;;;;;4965482;28;20211;-81
2021/01/17 05:30:58;;;;;;;7.13;3.97;;;0.90;99.90;;;;;;4983098;28;20172;-80
2021/01/17 05:33:28;;;;;;;10.38;5.18;;;0.80;99.90;;;;;;4965527;28;20168;-80
2021/01/17 05:35:54;;;;;;;6.03;4.25;;;0.60;99.90;;;;;;4949752;28;20207;-80
2021/01/17 05:38:20;;;;;;;8.07;5.03;;;0.80;99.90;;;;;;4963852;28;20175;-80
2021/01/17 05:40:46;;;;;;;8.70;4.57;;;0.80;99.90;;;;;;4980905;28;20259;-80
2021/01/17 05:43:11;;;;;;;12.43;4.90;;;0.60;99.90;;;;;;4981123;28;20407;-81
2021/01/17 05:45:37;;;;;;;7.50;4.30;;;0.40;99.90;;;;;;4930576;28;20285;-81
2021/01/17 05:48:05;;;;;;;7.97;4.40;;;0.30;99.90;;;;;;4945667;28;20214;-81
2021/01/17 05:50:33;;;;;;;8.07;4.13;;;0.30;99.90;;;;;;4982645;28;20502;-80
2021/01/17 05:53:06;;;;;;;7.82;3.88;;;0.50;99.90;;;;;;4946925;28;20227;-81
2021/01/17 05:55:34;;;;;;;7.72;3.65;;;0.70;99.90;;;;;;4983700;28;20179;-81
2021/01/17 05:58:22;;;;;;;4.72;3.40;;;0.50;99.90;;;;;;4985585;28;20179;-80
2021/01/17 06:00:57;;;;;;;7.80;4.47;;;0.30;99.90;;;;;;4985156;28;20651;-81
2021/01/17 06:03:33;;;;;;;4.50;3.50;;;0.70;99.90;;;;;;4968446;28;20491;-80
2021/01/17 06:06:06;;;;;;;5.53;3.60;;;0.80;99.90;;;;;;4953480;28;20235;-80
2021/01/17 06:08:34;;;;;;;7.20;4.72;;;0.70;99.90;;;;;;4987214;28;20203;-80
2021/01/17 06:11:15;;;;;;;7.50;4.70;;;0.70;99.90;;;;;;4970363;28;20176;-81
2021/01/17 06:13:41;;;;;;;7.20;3.03;;;0.80;99.90;;;;;;4970344;28;20187;-81
2021/01/17 06:16:32;;;;;;;6.65;4.60;;;0.70;99.90;;;;;;4970165;28;20202;-80
2021/01/17 06:18:59;;;;;;;6.15;4.10;;;0.50;99.90;;;;;;4972264;28;20175;-80
2021/01/17 06:21:26;;;;;;;5.72;3.83;;;0.40;99.90;;;;;;4954798;28;20239;-80
2021/01/17 06:23:57;;;;;;;11.90;4.38;;;0.50;99.90;;;;;;4970154;28;20198;-80
2021/01/17 06:26:31;;;;;;;7.78;4.25;;;0.50;99.90;;;;;;4973016;28;20683;-80
2021/01/17 06:28:58;;;;;;;6.95;4.30;;;0.40;99.90;;;;;;4968181;28;20217;-80
2021/01/17 06:31:27;;;;;;;4.85;3.05;;;0.50;99.90;;;;;;4966056;28;20659;-80
2021/01/17 06:34:13;;;;;;;8.38;4.18;;;0.60;99.90;;;;;;4966992;28;20246;-80
2021/01/17 06:36:46;;;;;;;10.32;4.50;;;0.40;99.90;;;;;;4981639;28;20199;-79
2021/01/17 06:39:28;;;;;;;6.18;3.83;;;0.30;99.90;;;;;;4980900;28;20259;-79
2021/01/17 06:41:57;;;;;;;5.82;3.75;;;0.40;99.90;;;;;;4982777;28;20251;-78
2021/01/17 06:44:30;;;;;;;11.25;4.70;;;0.30;99.90;;;;;;4966896;28;20191;-80
2021/01/17 06:46:56;;;;;;;9.02;5.55;;;0.30;99.90;;;;;;4984733;28;20178;-80
2021/01/17 06:49:25;;;;;;;6.55;4.50;;;0.20;99.90;;;;;;4983646;28;20202;-80
2021/01/17 06:51:51;;;;;;;8.35;5.30;;;0.20;99.90;;;;;;4985488;28;20254;-80
2021/01/17 06:54:34;;;;;;;6.80;3.58;;;0.20;99.90;;;;;;4970596;28;20182;-80
2021/01/17 06:57:02;;;;;;;10.27;3.67;;;0.30;99.90;;;;;;4969552;28;20171;-80
2021/01/17 06:59:33;;;;;;;6.65;3.30;;;0.40;99.90;;;;;;4953614;28;20187;-81
2021/01/17 07:02:14;;;;;;;10.27;4.10;;;0.70;99.90;;;;;;4986522;28;20222;-82
2021/01/17 07:04:52;;;;;;;6.00;3.75;;;0.80;99.90;;;;;;4969154;28;20196;-82
2021/01/17 07:07:33;;;;;;;6.10;4.72;;;1.10;99.90;;;;;;4985836;28;20183;-81
2021/01/17 07:10:01;;;;;;;8.15;4.80;;;1.00;99.90;;;;;;4968791;28;20202;-82
2021/01/17 07:12:51;;;;;;;5.35;3.70;;;0.80;99.90;;;;;;4969687;28;20176;-79
2021/01/17 07:15:28;;;;;;;5.40;3.85;;;1.00;99.90;;;;;;4985072;28;20198;-81
2021/01/17 07:18:07;;;;;;;10.80;5.25;;;0.90;99.90;;;;;;4967973;28;20186;-81
2021/01/17 07:20:40;;;;;;;7.20;3.95;;;1.20;99.90;;;;;;4967059;28;20190;-80
2021/01/17 07:23:13;;;;;;;5.07;3.30;;;1.20;99.90;;;;;;4972573;29;20176;-80
2021/01/17 07:25:42;;;;;;;6.95;4.90;;;1.00;99.90;;;;;;4961564;28;20311;-80
2021/01/17 07:28:11;;;;;;;7.47;4.15;;;0.80;99.90;;;;;;4968413;28;20203;-80
2021/01/17 07:30:56;;;;;;;13.88;4.68;;;0.70;99.90;;;;;;4986331;28;20179;-80
2021/01/17 07:33:28;;;;;;;8.40;5.18;;;0.60;99.90;;;;;;4981589;28;20171;-80
2021/01/17 07:35:57;;;;;;;8.02;3.88;;;0.50;99.90;;;;;;4980382;28;20191;-80
2021/01/17 07:38:28;;;;;;;9.27;5.35;;;0.50;99.90;;;;;;4963506;28;20618;-80
2021/01/17 07:41:08;;;;;;;8.57;4.35;;;0.80;99.90;;;;;;4983859;28;20180;-80
2021/01/17 07:43:35;;;;;;;10.73;4.68;;;0.50;99.90;;;;;;4967691;28;20265;-80
2021/01/17 07:46:06;;;;;;;9.98;4.47;;;0.30;99.90;;;;;;4951734;28;20202;-82
2021/01/17 07:48:32;;;;;;;5.97;4.03;;;0.40;99.90;;;;;;4968141;28;20210;-80
2021/01/17 07:51:04;;;;;;;6.13;3.38;;;0.20;99.90;;;;;;4969116;28;20186;-81
2021/01/17 07:53:41;;;;;;;7.15;3.45;;;0.20;99.90;;;;;;4986524;28;20171;-81
2021/01/17 07:56:34;;;;;;;11.32;4.05;;;0.30;99.90;;;;;;4986549;28;20198;-80
2021/01/17 07:59:05;;;;;;;4.07;3.47;;;0.30;99.90;;;;;;4971007;28;20191;-81
2021/01/17 08:01:30;;;;;;;6.55;4.15;;;0.40;99.90;;;;;;4952513;28;20179;-81
2021/01/17 08:04:16;;;;;;;5.43;3.47;;;0.80;99.90;;;;;;4986731;28;20192;-81
2021/01/17 08:06:49;;;;;;;8.85;5.38;;;0.80;99.90;;;;;;4968449;28;20191;-81
2021/01/17 08:09:47;;;;;;;6.40;4.63;;;0.70;99.90;;;;;;4966954;29;20203;-81
2021/01/17 08:12:48;;;;;;;6.95;4.50;;;0.70;99.90;;;;;;4969285;28;20178;-81
2021/01/17 08:15:22;;;;;;;7.05;4.30;;;0.80;99.90;;;;;;4945436;29;20311;-81
2021/01/17 08:17:49;;;;;;;6.68;4.22;;;0.70;99.90;;;;;;4978775;28;20187;-81
2021/01/17 08:20:21;;;;;;;7.32;5.00;;;1.00;99.90;;;;;;4985037;28;20180;-80
2021/01/17 08:22:47;;;;;;;4.93;4.03;;;1.10;99.90;;;;;;4970449;28;20184;-80
2021/01/17 08:25:14;;;;;;;10.10;4.77;;;0.80;99.90;;;;;;4968187;28;20287;-80
2021/01/17 08:27:45;;;;;;;10.27;3.97;;;1.10;99.90;;;;;;4967859;28;20461;-81
2021/01/17 08:30:22;;;;;;;7.47;4.78;;;1.10;99.90;;;;;;4970153;28;20168;-81
2021/01/17 08:32:55;;;;;;;6.53;4.55;;;1.30;99.90;;;;;;4971415;28;20222;-78
2021/01/17 08:35:21;;;;;;;8.15;4.35;;;1.10;99.90;;;;;;4965568;28;20196;-79
2021/01/17 08:37:51;;;;;;;7.07;4.70;;;1.00;99.90;;;;;;4983774;28;20168;-79
2021/01/17 08:40:27;;;;;;;6.80;5.53;;;1.20;99.90;;;;;;4968097;28;20207;-80
2021/01/17 08:43:03;;;;;;;6.60;3.92;;;0.80;99.90;;;;;;4953431;28;20238;-81
2021/01/17 08:45:29;;;;;;;7.00;3.33;;;0.80;99.90;;;;;;4984364;28;20229;-80
2021/01/17 08:47:56;;;;;;;4.30;3.50;;;0.60;99.90;;;;;;4987708;28;20206;-79
2021/01/17 08:50:37;;;;;;;4.20;3.80;;;0.70;99.90;;;;;;4970328;28;20857;-80
2021/01/17 08:53:21;;;;;;;9.50;4.75;;;1.20;99.90;;;;;;4948898;28;20179;-80
2021/01/17 08:55:49;;;;;;;6.22;3.53;;;1.10;99.90;;;;;;4963183;28;20289;-80
2021/01/17 08:58:24;;;;;;;7.80;3.70;;;0.70;99.90;;;;;;4972661;28;20662;-80
2021/01/17 09:00:53;;;;;;;6.45;4.10;;;0.50;99.90;;;;;;4974508;28;20265;-79
2021/01/17 09:03:47;;;;;;;10.07;5.70;;;0.40;99.90;;;;;;4980210;28;20202;-80
2021/01/17 09:06:12;;;;;;;11.13;4.47;;;0.40;99.90;;;;;;4961954;28;20305;-81
2021/01/17 09:09:06;;;;;;;7.70;4.30;;;0.60;99.90;;;;;;4962518;28;20308;-81
2021/01/17 09:11:42;;;;;;;7.68;4.10;;;0.70;99.90;;;;;;4978171;28;20192;-79
2021/01/17 09:14:07;;;;;;;10.68;4.30;;;1.10;99.90;;;;;;4963694;28;20524;-79
2021/01/17 09:16:45;;;;;;;9.10;5.03;;;1.30;99.90;;;;;;4979924;28;20210;-80
2021/01/17 09:19:11;;;;;;;9.25;5.20;;;1.00;99.90;;;;;;4979640;28;20242;-81
2021/01/17 09:21:38;;;;;;;7.30;5.28;;;0.70;99.90;;;;;;4980366;28;20184;-80
2021/01/17 09:24:28;;;;;;;12.30;5.15;;;0.50;99.90;;;;;;4947176;28;20194;-81
2021/01/17 09:26:59;;;;;;;10.25;4.95;;;0.90;99.90;;;;;;4971836;28;20184;-80
2021/01/17 09:29:36;;;;;;;5.78;3.97;;;0.70;99.90;;;;;;4944572;28;20214;-80
2021/01/17 09:32:13;;;;;;;9.40;4.72;;;0.60;99.90;;;;;;4944530;28;20175;-79
2021/01/17 09:34:47;;;;;;;6.43;4.53;;;0.50;99.90;;;;;;4978663;28;20191;-79
2021/01/17 09:37:17;;;;;;;9.32;5.95;;;0.60;99.90;;;;;;4979320;28;20195;-81
2021/01/17 09:39:47;;;;;;;7.95;5.35;;;0.50;99.90;;;;;;4980430;28;20184;-79
2021/01/17 09:42:15;;;;;;;9.13;5.78;;;0.70;99.90;;;;;;4960863;28;20180;-79
2021/01/17 09:44:52;;;;;;;8.25;5.28;;;1.00;99.90;;;;;;4960071;28;20199;-80
2021/01/17 09:47:22;;;;;;;5.25;4.43;;;1.10;99.90;;;;;;4977181;28;20191;-82
2021/01/17 09:49:48;;;;;;;9.85;6.38;;;1.00;99.90;;;;;;4976738;28;20214;-80
2021/01/17 09:52:20;;;;;;;7.47;4.55;;;1.20;99.90;;;;;;4996606;28;20187;-81
2021/01/17 09:54:49;;;;;;;11.18;4.60;;;1.40;99.90;;;;;;4971224;28;20580;-82
2021/01/17 09:57:18;;;;;;;6.03;3.92;;;1.40;99.90;;;;;;4950368;28;20191;-82
2021/01/17 09:59:50;;;;;;;9.77;5.20;;;1.60;99.90;;;;;;4965154;28;20234;-81
2021/01/17 10:02:23;;;;;;;9.48;4.50;;;1.80;99.90;;;;;;4945874;28;20210;-79
2021/01/17 10:04:50;;;;;;;6.82;4.60;;;1.90;99.90;;;;;;4980547;28;20628;-81
2021/01/17 10:07:20;;;;;;;10.77;5.20;;;2.00;99.90;;;;;;4962689;28;20234;-81
2021/01/17 10:09:47;;;;;;;10.55;5.53;;;2.00;99.90;;;;;;4961901;28;20171;-80
2021/01/17 10:12:13;;;;;;;7.22;4.97;;;1.90;99.90;;;;;;4964998;28;20190;-80
2021/01/17 10:14:42;;;;;;;12.20;5.53;;;1.50;99.90;;;;;;4983448;28;20598;-81
2021/01/17 10:17:10;;;;;;;8.75;5.50;;;1.20;99.90;;;;;;4966433;28;20186;-81
2021/01/17 10:19:45;;;;;;;9.93;4.85;;;1.10;99.90;;;;;;4967463;28;20183;-85
2021/01/17 10:22:15;;;;;;;6.95;4.50;;;1.20;99.90;;;;;;4965955;28;20590;-82
2021/01/17 10:24:41;;;;;;;7.07;4.68;;;1.10;99.90;;;;;;4982479;28;20532;-83
2021/01/17 10:27:17;;;;;;;9.20;5.33;;;1.50;99.90;;;;;;4968069;28;20202;-82
2021/01/17 10:29:42;;;;;;;12.00;4.93;;;1.70;99.90;;;;;;4966058;28;20442;-83
2021/01/17 10:32:11;;;;;;;7.27;4.60;;;1.90;99.90;;;;;;4961716;28;20187;-80
2021/01/17 10:34:40;;;;;;;9.20;4.75;;;2.10;99.90;;;;;;4961561;28;20441;-81
2021/01/17 10:37:11;;;;;;;12.20;5.93;;;2.20;99.90;;;;;;4983689;28;20187;-81
2021/01/17 10:39:39;;;;;;;8.35;6.20;;;2.10;99.90;;;;;;4963862;28;20259;-82
2021/01/17 10:42:12;;;;;;;7.78;4.95;;;2.20;99.90;;;;;;4964954;28;20179;-80
2021/01/17 10:44:51;;;;;;;8.05;6.22;;;2.20;99.90;;;;;;4968467;28;20191;-80
2021/01/17 10:47:50;;;;;;;10.05;6.22;;;2.30;99.90;;;;;;4983579;28;20182;-81
2021/01/17 10:50:21;;;;;;;11.05;5.95;;;2.30;99.90;;;;;;4982596;28;20179;-81
2021/01/17 10:53:12;;;;;;;9.07;5.65;;;2.30;99.90;;;;;;4989955;28;20642;-82
2021/01/17 10:56:14;;;;;;;9.02;5.10;;;2.30;99.90;;;;;;4961501;28;20211;-79
2021/01/17 10:58:41;;;;;;;10.27;5.57;;;2.50;99.90;;;;;;4974712;28;20544;-81
2021/01/17 11:01:10;;;;;;;10.02;5.70;;;2.00;99.90;;;;;;4947461;28;20187;-79
2021/01/17 11:03:47;;;;;;;12.63;6.50;;;2.00;99.90;;;;;;4959429;28;20212;-80
2021/01/17 11:06:21;;;;;;;12.52;6.35;;;2.10;99.90;;;;;;4988077;28;20234;-78
2021/01/17 11:08:53;;;;;;;10.75;6.40;;;1.80;99.90;;;;;;4993810;28;20202;-81
2021/01/17 11:11:19;;;;;;;9.43;6.75;;;1.90;99.90;;;;;;4982226;28;20179;-82
2021/01/17 11:13:58;;;;;;;15.33;6.93;;;2.20;99.90;;;;;;4983991;28;20195;-80
2021/01/17 11:16:44;;;;;;;9.30;5.85;;;2.30;99.90;;;;;;4982440;28;20443;-80
2021/01/17 11:19:12;;;;;;;8.60;5.20;;;2.40;99.90;;;;;;4965495;28;20275;-80
2021/01/17 11:21:56;;;;;;;12.05;5.97;;;2.20;99.90;;;;;;4982959;28;20255;-79
2021/01/17 11:24:32;;;;;;;13.48;7.32;;;2.40;99.90;;;;;;4944327;28;20275;-80
2021/01/17 11:27:13;;;;;;;13.90;6.68;;;2.50;99.90;;;;;;4959516;28;20181;-80
2021/01/17 11:29:41;;;;;;;14.60;7.10;;;2.60;99.90;;;;;;4980626;28;20198;-79
2021/01/17 11:32:11;;;;;;;10.13;6.45;;;2.60;99.90;;;;;;4964954;28;20178;-79
2021/01/17 11:34:40;;;;;;;16.50;7.63;;;2.60;99.90;;;;;;4965218;28;20191;-79
2021/01/17 11:37:06;;;;;;;11.13;6.07;;;2.60;99.90;;;;;;4959622;28;20665;-78
2021/01/17 11:39:35;;;;;;;12.65;6.53;;;2.60;99.90;;;;;;4964446;28;20222;-79
2021/01/17 11:42:04;;;;;;;12.27;5.88;;;2.70;99.90;;;;;;4949970;28;20187;-80
2021/01/17 11:44:34;;;;;;;13.93;5.60;;;2.70;99.90;;;;;;4982324;28;20265;-80
2021/01/17 11:47:03;;;;;;;6.82;5.88;;;2.70;99.90;;;;;;4962299;28;20218;-80
2021/01/17 11:49:32;;;;;;;13.25;6.93;;;2.70;99.90;;;;;;4969293;28;20215;-82
2021/01/17 11:52:14;;;;;;;12.02;7.32;;;2.80;99.90;;;;;;4967469;28;20207;-81
2021/01/17 11:54:40;;;;;;;13.43;6.75;;;2.70;99.90;;;;;;4961878;28;20209;-84
2021/01/17 11:57:09;;;;;;;12.23;7.20;;;2.70;99.90;;;;;;4979093;28;20187;-79
2021/01/17 11:59:40;;;;;;;14.18;5.75;;;2.80;99.90;;;;;;4977448;28;20195;-79
2021/01/17 12:02:27;;;;;;;14.68;7.95;;;2.70;99.90;;;;;;4962443;28;20179;-80
2021/01/17 12:05:00;;;;;;;8.18;5.80;;;2.80;99.90;;;;;;4982462;28;20191;-82
2021/01/17 12:07:26;;;;;;;14.68;6.78;;;2.80;99.90;;;;;;4950389;28;20187;-79
2021/01/17 12:10:10;;;;;;;10.32;6.60;;;2.80;99.90;;;;;;4950908;28;20176;-80
2021/01/17 12:12:38;;;;;;;15.77;6.82;;;2.80;99.90;;;;;;4979461;28;20184;-81
2021/01/17 12:15:18;;;;;;;15.07;7.32;;;2.80;99.90;;;;;;4985231;28;20223;-80
2021/01/17 12:17:44;;;;;;;11.70;6.30;;;2.80;99.90;;;;;;4967477;28;20186;-81
2021/01/17 12:20:10;;;;;;;13.43;7.13;;;2.80;99.90;;;;;;4954834;28;20179;-82
2021/01/17 12:22:36;;;;;;;9.60;5.80;;;2.80;99.90;;;;;;4970996;28;20195;-80
2021/01/17 12:25:02;;;;;;;15.67;6.33;;;2.80;99.90;;;;;;4971818;28;20445;-81
2021/01/17 12:27:30;;;;;;;7.93;5.60;;;2.90;99.90;;;;;;4959327;28;20422;-81
2021/01/17 12:29:55;;;;;;;14.98;6.13;;;3.00;99.90;;;;;;4959303;28;20176;-79
2021/01/17 12:32:22;;;;;;;8.90;4.97;;;3.10;99.90;;;;;;4975727;28;20199;-81
2021/01/17 12:34:48;;;;;;;10.23;5.60;;;3.10;99.90;;;;;;4993513;28;20230;-81
2021/01/17 12:37:13;;;;;;;10.37;6.07;;;3.10;99.90;;;;;;4975026;28;20211;-81
2021/01/17 12:39:39;;;;;;;11.90;6.60;;;3.10;99.90;;;;;;4976332;28;20190;-81
2021/01/17 12:42:05;;;;;;;11.30;6.83;;;3.00;99.90;;;;;;4973492;28;20192;-80
2021/01/17 12:44:31;;;;;;;9.05;6.15;;;2.90;99.90;;;;;;4972526;28;20191;-80
2021/01/17 12:46:56;;;;;;;10.73;6.53;;;2.80;99.90;;;;;;4953696;28;20176;-80
2021/01/17 12:49:22;;;;;;;12.77;6.70;;;2.80;99.90;;;;;;4953074;28;20687;-81
2021/01/17 12:51:47;;;;;;;9.47;5.80;;;2.80;99.90;;;;;;4973433;28;20178;-81
2021/01/17 12:54:13;;;;;;;15.67;8.43;;;2.70;99.90;;;;;;4973452;28;20168;-82
2021/01/17 12:56:39;;;;;;;11.37;7.07;;;2.80;99.90;;;;;;4956781;28;20184;-81
2021/01/17 12:59:05;;;;;;;22.90;7.77;;;2.80;99.90;;;;;;4969108;28;20210;-81
2021/01/17 13:01:31;;;;;;;18.42;8.35;;;2.80;99.90;;;;;;4948759;28;20415;-82
2021/01/17 13:03:57;;;;;;;11.17;5.33;;;2.80;99.90;;;;;;4964738;28;20555;-81
2021/01/17 13:06:22;;;;;;;9.93;6.30;;;2.80;99.90;;;;;;4982822;28;20222;-81
2021/01/17 13:08:51;;;;;;;11.40;6.50;;;2.70;99.90;;;;;;4964780;28;20210;-81
2021/01/17 13:11:17;;;;;;;14.32;7.65;;;2.80;99.90;;;;;;4962446;28;20230;-81
2021/01/17 13:13:44;;;;;;;11.55;8.00;;;2.70;99.90;;;;;;4963109;28;20175;-82
2021/01/17 13:16:16;;;;;;;10.88;6.38;;;2.70;99.90;;;;;;4981983;28;20183;-80